Login to view Products
 
Sunday, June 16, 2024 (14:23 UTC)
Ras Al Khaimah International Airport
ICAO: OMRK
IATA: RKT
  • METAR OMRK 161400Z 32006KT CAVOK 41/18 Q0999 A2950=
  • TAF OMRK 161100Z 1612/1718 35012KT CAVOK BECMG 1615/1617 VRB02KT BECMG 1707/1709 34013KT BECMG 1715/1717 VRB02KT=
14-- D:\Input Parser\Destinations\Final\11\OMRK_TAF.txt-- 16/06/2024-- 16/06/2024-- 3